sensor_id;sensor_type;location;lat;lon;timestamp;pressure;altitude;pressure_sealevel;temperature;humidity
60609;BME280;48221;53.528;9.884;2022-08-07T00:01:24;102682.63;;;12.49;100.00
60609;BME280;48221;53.528;9.884;2022-08-07T00:03:49;102686.84;;;12.45;100.00
60609;BME280;48221;53.528;9.884;2022-08-07T00:06:15;102680.63;;;12.43;100.00
60609;BME280;48221;53.528;9.884;2022-08-07T00:08:40;102679.59;;;12.40;100.00
60609;BME280;48221;53.528;9.884;2022-08-07T00:11:06;102675.03;;;12.36;100.00
60609;BME280;48221;53.528;9.884;2022-08-07T00:13:32;102679.38;;;12.35;100.00
60609;BME280;48221;53.528;9.884;2022-08-07T00:15:58;102677.50;;;12.33;100.00
60609;BME280;48221;53.528;9.884;2022-08-07T00:18:27;102669.44;;;12.28;100.00
60609;BME280;48221;53.528;9.884;2022-08-07T00:20:58;102675.47;;;12.27;100.00
60609;BME280;48221;53.528;9.884;2022-08-07T00:23:24;102665.75;;;12.24;100.00
60609;BME280;48221;53.528;9.884;2022-08-07T00:25:50;102658.38;;;12.16;100.00
60609;BME280;48221;53.528;9.884;2022-08-07T00:28:15;102667.19;;;12.18;100.00
60609;BME280;48221;53.528;9.884;2022-08-07T00:30:41;102673.16;;;12.15;100.00
60609;BME280;48221;53.528;9.884;2022-08-07T00:33:06;102667.84;;;12.14;100.00
60609;BME280;48221;53.528;9.884;2022-08-07T00:35:32;102668.69;;;12.13;100.00
60609;BME280;48221;53.528;9.884;2022-08-07T00:37:58;102673.75;;;12.10;100.00
60609;BME280;48221;53.528;9.884;2022-08-07T00:40:24;102670.19;;;12.08;100.00
60609;BME280;48221;53.528;9.884;2022-08-07T00:42:49;102663.91;;;12.04;100.00
60609;BME280;48221;53.528;9.884;2022-08-07T00:45:14;102665.53;;;12.02;100.00
60609;BME280;48221;53.528;9.884;2022-08-07T00:47:40;102664.56;;;12.00;100.00
60609;BME280;48221;53.528;9.884;2022-08-07T00:50:06;102658.28;;;11.96;100.00
60609;BME280;48221;53.528;9.884;2022-08-07T00:52:31;102662.56;;;11.94;100.00
60609;BME280;48221;53.528;9.884;2022-08-07T00:54:56;102657.16;;;11.91;100.00
60609;BME280;48221;53.528;9.884;2022-08-07T00:57:23;102657.00;;;11.88;100.00
60609;BME280;48221;53.528;9.884;2022-08-07T00:59:49;102664.78;;;11.87;100.00
60609;BME280;48221;53.528;9.884;2022-08-07T01:02:15;102655.00;;;11.83;100.00
60609;BME280;48221;53.528;9.884;2022-08-07T01:04:41;102655.81;;;11.82;100.00
60609;BME280;48221;53.528;9.884;2022-08-07T01:07:06;102659.16;;;11.79;100.00
60609;BME280;48221;53.528;9.884;2022-08-07T01:09:32;102658.16;;;11.77;100.00
60609;BME280;48221;53.528;9.884;2022-08-07T01:11:58;102656.97;;;11.71;100.00
60609;BME280;48221;53.528;9.884;2022-08-07T01:14:24;102657.03;;;11.72;100.00
60609;BME280;48221;53.528;9.884;2022-08-07T01:16:50;102665.63;;;11.69;100.00
60609;BME280;48221;53.528;9.884;2022-08-07T01:19:17;102655.91;;;11.67;100.00
60609;BME280;48221;53.528;9.884;2022-08-07T01:21:44;102664.56;;;11.66;100.00
60609;BME280;48221;53.528;9.884;2022-08-07T01:24:10;102656.66;;;11.64;100.00
60609;BME280;48221;53.528;9.884;2022-08-07T01:26:36;102655.75;;;11.64;100.00
60609;BME280;48221;53.528;9.884;2022-08-07T01:29:01;102655.75;;;11.64;100.00
60609;BME280;48221;53.528;9.884;2022-08-07T01:31:27;102650.38;;;11.61;100.00
60609;BME280;48221;53.528;9.884;2022-08-07T01:33:57;102652.91;;;11.59;100.00
60609;BME280;48221;53.528;9.884;2022-08-07T01:36:23;102650.03;;;11.55;100.00
60609;BME280;48221;53.528;9.884;2022-08-07T01:38:49;102638.53;;;11.51;100.00
60609;BME280;48221;53.528;9.884;2022-08-07T01:41:15;102645.63;;;11.54;100.00
60609;BME280;48221;53.528;9.884;2022-08-07T01:43:42;102648.19;;;11.52;100.00
60609;BME280;48221;53.528;9.884;2022-08-07T01:46:09;102651.41;;;11.47;100.00
60609;BME280;48221;53.528;9.884;2022-08-07T01:48:35;102644.44;;;11.47;100.00
60609;BME280;48221;53.528;9.884;2022-08-07T01:51:05;102653.00;;;11.45;100.00
60609;BME280;48221;53.528;9.884;2022-08-07T01:53:33;102646.88;;;11.44;100.00
60609;BME280;48221;53.528;9.884;2022-08-07T01:56:06;102652.94;;;11.43;100.00
60609;BME280;48221;53.528;9.884;2022-08-07T01:58:38;102644.03;;;11.39;100.00
60609;BME280;48221;53.528;9.884;2022-08-07T02:01:13;102639.63;;;11.38;100.00
60609;BME280;48221;53.528;9.884;2022-08-07T02:03:46;102643.91;;;11.36;100.00
60609;BME280;48221;53.528;9.884;2022-08-07T02:06:15;102651.56;;;11.33;100.00
60609;BME280;48221;53.528;9.884;2022-08-07T02:08:43;102641.78;;;11.29;100.00
60609;BME280;48221;53.528;9.884;2022-08-07T02:11:10;102646.25;;;11.32;100.00
60609;BME280;48221;53.528;9.884;2022-08-07T02:13:36;102646.09;;;11.29;100.00
60609;BME280;48221;53.528;9.884;2022-08-07T02:16:04;102647.75;;;11.27;100.00
60609;BME280;48221;53.528;9.884;2022-08-07T02:18:32;102640.53;;;11.23;100.00
60609;BME280;48221;53.528;9.884;2022-08-07T02:21:00;102641.47;;;11.23;100.00
60609;BME280;48221;53.528;9.884;2022-08-07T02:23:27;102640.53;;;11.23;100.00
60609;BME280;48221;53.528;9.884;2022-08-07T02:25:56;102636.13;;;11.22;100.00
60609;BME280;48221;53.528;9.884;2022-08-07T02:28:25;102644.72;;;11.19;100.00
60609;BME280;48221;53.528;9.884;2022-08-07T02:30:51;102640.25;;;11.17;100.00
60609;BME280;48221;53.528;9.884;2022-08-07T02:33:18;102631.28;;;11.12;100.00
60609;BME280;48221;53.528;9.884;2022-08-07T02:35:44;102619.75;;;11.08;100.00
60609;BME280;48221;53.528;9.884;2022-08-07T02:38:13;102624.00;;;11.06;100.00
60609;BME280;48221;53.528;9.884;2022-08-07T02:40:40;102627.44;;;11.05;100.00
60609;BME280;48221;53.528;9.884;2022-08-07T02:43:06;102635.94;;;11.01;100.00
60609;BME280;48221;53.528;9.884;2022-08-07T02:45:32;102637.66;;;11.00;100.00
60609;BME280;48221;53.528;9.884;2022-08-07T02:47:58;102626.13;;;10.97;100.00
60609;BME280;48221;53.528;9.884;2022-08-07T02:50:24;102628.66;;;10.95;100.00
60609;BME280;48221;53.528;9.884;2022-08-07T02:52:53;102627.69;;;10.93;100.00
60609;BME280;48221;53.528;9.884;2022-08-07T02:55:22;102625.81;;;10.91;100.00
60609;BME280;48221;53.528;9.884;2022-08-07T02:57:50;102616.75;;;10.84;100.00
60609;BME280;48221;53.528;9.884;2022-08-07T03:00:16;102626.44;;;10.87;100.00
60609;BME280;48221;53.528;9.884;2022-08-07T03:02:45;102626.38;;;10.85;100.00
60609;BME280;48221;53.528;9.884;2022-08-07T03:05:12;102619.19;;;10.81;100.00
60609;BME280;48221;53.528;9.884;2022-08-07T03:07:40;102620.03;;;10.80;100.00
60609;BME280;48221;53.528;9.884;2022-08-07T03:10:07;102623.44;;;10.79;100.00
60609;BME280;48221;53.528;9.884;2022-08-07T03:12:33;102615.53;;;10.77;100.00
60609;BME280;48221;53.528;9.884;2022-08-07T03:14:59;102612.66;;;10.73;100.00
60609;BME280;48221;53.528;9.884;2022-08-07T03:17:25;102611.69;;;10.71;100.00
60609;BME280;48221;53.528;9.884;2022-08-07T03:19:51;102611.44;;;10.66;100.00
60609;BME280;48221;53.528;9.884;2022-08-07T03:22:18;102611.53;;;10.68;100.00
60609;BME280;48221;53.528;9.884;2022-08-07T03:24:44;102617.56;;;10.67;100.00
60609;BME280;48221;53.528;9.884;2022-08-07T03:27:10;102613.06;;;10.64;100.00
60609;BME280;48221;53.528;9.884;2022-08-07T03:29:39;102613.88;;;10.63;100.00
60609;BME280;48221;53.528;9.884;2022-08-07T03:32:09;102611.25;;;10.63;100.00
60609;BME280;48221;53.528;9.884;2022-08-07T03:34:37;102609.53;;;10.64;100.00
60609;BME280;48221;53.528;9.884;2022-08-07T03:37:03;102612.09;;;10.62;100.00
60609;BME280;48221;53.528;9.884;2022-08-07T03:39:32;102614.63;;;10.61;100.00
60609;BME280;48221;53.528;9.884;2022-08-07T03:41:58;102613.56;;;10.57;100.00
60609;BME280;48221;53.528;9.884;2022-08-07T03:44:26;102614.53;;;10.59;100.00
60609;BME280;48221;53.528;9.884;2022-08-07T03:46:51;102616.00;;;10.54;100.00
60609;BME280;48221;53.528;9.884;2022-08-07T03:49:16;102615.19;;;10.55;100.00
60609;BME280;48221;53.528;9.884;2022-08-07T03:51:42;102618.44;;;10.51;100.00
60609;BME280;48221;53.528;9.884;2022-08-07T03:54:08;102622.00;;;10.53;100.00
60609;BME280;48221;53.528;9.884;2022-08-07T03:56:36;102619.41;;;10.53;100.00
60609;BME280;48221;53.528;9.884;2022-08-07T03:59:04;102623.84;;;10.54;100.00
60609;BME280;48221;53.528;9.884;2022-08-07T04:01:30;102622.94;;;10.54;100.00
60609;BME280;48221;53.528;9.884;2022-08-07T04:03:56;102622.00;;;10.53;100.00
60609;BME280;48221;53.528;9.884;2022-08-07T04:06:22;102626.34;;;10.52;100.00
60609;BME280;48221;53.528;9.884;2022-08-07T04:08:48;102625.44;;;10.52;100.00
60609;BME280;48221;53.528;9.884;2022-08-07T04:11:14;102627.22;;;10.53;100.00
60609;BME280;48221;53.528;9.884;2022-08-07T04:13:40;102625.44;;;10.52;100.00
60609;BME280;48221;53.528;9.884;2022-08-07T04:16:06;102629.75;;;10.51;100.00
60609;BME280;48221;53.528;9.884;2022-08-07T04:18:31;102624.38;;;10.48;100.00
60609;BME280;48221;53.528;9.884;2022-08-07T04:20:57;102630.59;;;10.50;100.00
60609;BME280;48221;53.528;9.884;2022-08-07T04:23:24;102632.38;;;10.51;100.00
60609;BME280;48221;53.528;9.884;2022-08-07T04:25:51;102639.31;;;10.51;100.00
60609;BME280;48221;53.528;9.884;2022-08-07T04:28:17;102636.78;;;10.52;100.00
60609;BME280;48221;53.528;9.884;2022-08-07T04:30:46;102622.94;;;10.54;100.00
60609;BME280;48221;53.528;9.884;2022-08-07T04:33:12;102635.88;;;10.52;100.00
60609;BME280;48221;53.528;9.884;2022-08-07T04:35:40;102641.38;;;10.57;100.00
60609;BME280;48221;53.528;9.884;2022-08-07T04:38:09;102641.44;;;10.58;100.00
60609;BME280;48221;53.528;9.884;2022-08-07T04:40:38;102648.56;;;10.61;100.00
60609;BME280;48221;53.528;9.884;2022-08-07T04:43:04;102644.31;;;10.63;100.00
60609;BME280;48221;53.528;9.884;2022-08-07T04:51:27;102641.97;;;10.67;100.00
60609;BME280;48221;53.528;9.884;2022-08-07T04:54:02;102651.66;;;10.70;100.00
60609;BME280;48221;53.528;9.884;2022-08-07T04:56:43;102654.34;;;10.71;100.00
60609;BME280;48221;53.528;9.884;2022-08-07T04:59:16;102655.31;;;10.73;100.00
60609;BME280;48221;53.528;9.884;2022-08-07T05:02:08;102658.91;;;10.75;100.00
60609;BME280;48221;53.528;9.884;2022-08-07T05:04:47;102661.72;;;10.78;100.00
60609;BME280;48221;53.528;9.884;2022-08-07T05:07:21;102654.88;;;10.80;100.00
60609;BME280;48221;53.528;9.884;2022-08-07T05:09:58;102655.00;;;10.84;100.00
60609;BME280;48221;53.528;9.884;2022-08-07T05:12:33;102646.22;;;10.81;100.00
60609;BME280;48221;53.528;9.884;2022-08-07T05:15:26;102661.47;;;10.90;100.00
60609;BME280;48221;53.528;9.884;2022-08-07T05:18:04;102661.63;;;10.93;100.00
60609;BME280;48221;53.528;9.884;2022-08-07T05:20:33;102671.34;;;10.96;100.00
60609;BME280;48221;53.528;9.884;2022-08-07T05:23:09;102665.38;;;10.98;100.00
60609;BME280;48221;53.528;9.884;2022-08-07T05:25:36;102664.66;;;11.01;100.00
60609;BME280;48221;53.528;9.884;2022-08-07T05:28:03;102672.81;;;11.07;100.00
60609;BME280;48221;53.528;9.884;2022-08-07T05:30:30;102664.22;;;11.09;100.00
60609;BME280;48221;53.528;9.884;2022-08-07T05:32:58;102670.34;;;11.10;100.00
60609;BME280;48221;53.528;9.884;2022-08-07T05:35:25;102678.53;;;11.16;100.00
60609;BME280;48221;53.528;9.884;2022-08-07T05:37:51;102669.81;;;11.16;100.00
60609;BME280;48221;53.528;9.884;2022-08-07T05:40:17;102664.88;;;11.22;100.00
60609;BME280;48221;53.528;9.884;2022-08-07T05:42:44;102667.75;;;11.26;100.00
60609;BME280;48221;53.528;9.884;2022-08-07T05:45:10;102660.88;;;11.28;100.00
60609;BME280;48221;53.528;9.884;2022-08-07T05:47:37;102658.41;;;11.31;100.00
60609;BME280;48221;53.528;9.884;2022-08-07T05:50:03;102663.00;;;11.35;100.00
60609;BME280;48221;53.528;9.884;2022-08-07T05:52:29;102665.25;;;11.46;100.00
60609;BME280;48221;53.528;9.884;2022-08-07T05:54:54;102664.84;;;11.54;100.00
60609;BME280;48221;53.528;9.884;2022-08-07T05:57:20;102664.34;;;11.61;100.00
60609;BME280;48221;53.528;9.884;2022-08-07T05:59:47;102668.06;;;11.66;100.00
60609;BME280;48221;53.528;9.884;2022-08-07T06:02:14;102657.88;;;11.71;100.00
60609;BME280;48221;53.528;9.884;2022-08-07T06:04:48;102656.06;;;11.70;100.00
60609;BME280;48221;53.528;9.884;2022-08-07T06:07:15;102667.19;;;11.82;100.00
60609;BME280;48221;53.528;9.884;2022-08-07T06:09:43;102657.91;;;11.89;100.00
60609;BME280;48221;53.528;9.884;2022-08-07T06:12:09;102657.31;;;11.94;100.00
60609;BME280;48221;53.528;9.884;2022-08-07T06:14:35;102660.38;;;12.04;100.00
60609;BME280;48221;53.528;9.884;2022-08-07T06:17:02;102654.47;;;12.08;100.00
60609;BME280;48221;53.528;9.884;2022-08-07T06:19:28;102662.84;;;12.18;100.00
60609;BME280;48221;53.528;9.884;2022-08-07T06:21:55;102659.75;;;12.27;100.00
60609;BME280;48221;53.528;9.884;2022-08-07T06:24:20;102659.19;;;12.33;100.00
60609;BME280;48221;53.528;9.884;2022-08-07T06:26:46;102652.66;;;12.42;100.00
60609;BME280;48221;53.528;9.884;2022-08-07T06:29:11;102659.16;;;12.50;100.00
60609;BME280;48221;53.528;9.884;2022-08-07T06:31:37;102649.03;;;12.58;100.00
60609;BME280;48221;53.528;9.884;2022-08-07T06:34:02;102655.72;;;12.71;100.00
60609;BME280;48221;53.528;9.884;2022-08-07T06:36:28;102657.94;;;12.81;100.00
60609;BME280;48221;53.528;9.884;2022-08-07T06:38:54;102651.47;;;12.92;100.00
60609;BME280;48221;53.528;9.884;2022-08-07T06:41:23;102657.13;;;13.01;100.00
60609;BME280;48221;53.528;9.884;2022-08-07T06:43:49;102657.69;;;13.13;100.00
60609;BME280;48221;53.528;9.884;2022-08-07T06:46:16;102665.09;;;13.22;100.00
60609;BME280;48221;53.528;9.884;2022-08-07T06:48:42;102660.19;;;13.30;100.00
60609;BME280;48221;53.528;9.884;2022-08-07T06:51:09;102671.28;;;13.43;100.00
60609;BME280;48221;53.528;9.884;2022-08-07T06:53:39;102665.75;;;13.57;100.00
60609;BME280;48221;53.528;9.884;2022-08-07T06:56:06;102661.91;;;13.69;100.00
60609;BME280;48221;53.528;9.884;2022-08-07T06:58:34;102660.53;;;13.78;100.00
60609;BME280;48221;53.528;9.884;2022-08-07T07:01:01;102646.81;;;13.85;100.00
60609;BME280;48221;53.528;9.884;2022-08-07T07:03:27;102655.94;;;13.94;100.00
60609;BME280;48221;53.528;9.884;2022-08-07T07:05:53;102654.66;;;14.06;100.00
60609;BME280;48221;53.528;9.884;2022-08-07T07:08:24;102657.63;;;14.13;100.00
60609;BME280;48221;53.528;9.884;2022-08-07T07:10:49;102664.03;;;14.21;100.00
60609;BME280;48221;53.528;9.884;2022-08-07T07:13:16;102656.66;;;14.34;100.00
60609;BME280;48221;53.528;9.884;2022-08-07T07:15:49;102662.22;;;14.41;100.00
60609;BME280;48221;53.528;9.884;2022-08-07T07:20:51;102658.84;;;14.66;100.00
60609;BME280;48221;53.528;9.884;2022-08-07T07:23:19;102660.09;;;14.76;100.00
60609;BME280;48221;53.528;9.884;2022-08-07T07:25:46;102656.88;;;14.83;100.00
60609;BME280;48221;53.528;9.884;2022-08-07T07:28:22;102643.94;;;14.89;100.00
60609;BME280;48221;53.528;9.884;2022-08-07T07:30:54;102659.31;;;15.02;100.00
60609;BME280;48221;53.528;9.884;2022-08-07T07:33:22;102652.66;;;15.12;100.00
60609;BME280;48221;53.528;9.884;2022-08-07T07:35:51;102661.84;;;15.23;100.00
60609;BME280;48221;53.528;9.884;2022-08-07T07:38:21;102658.69;;;15.33;100.00
60609;BME280;48221;53.528;9.884;2022-08-07T07:40:48;102657.19;;;15.40;100.00
60609;BME280;48221;53.528;9.884;2022-08-07T07:43:15;102653.88;;;15.45;100.00
60609;BME280;48221;53.528;9.884;2022-08-07T07:45:44;102655.28;;;15.60;100.00
60609;BME280;48221;53.528;9.884;2022-08-07T07:48:19;102654.75;;;15.70;100.00
60609;BME280;48221;53.528;9.884;2022-08-07T07:50:47;102644.38;;;15.74;100.00
60609;BME280;48221;53.528;9.884;2022-08-07T07:53:14;102640.22;;;15.81;100.00
60609;BME280;48221;53.528;9.884;2022-08-07T07:55:41;102647.56;;;15.91;100.00
60609;BME280;48221;53.528;9.884;2022-08-07T07:58:06;102650.56;;;16.02;100.00
60609;BME280;48221;53.528;9.884;2022-08-07T08:00:33;102644.56;;;16.08;100.00
60609;BME280;48221;53.528;9.884;2022-08-07T08:03:04;102643.31;;;16.22;100.00
60609;BME280;48221;53.528;9.884;2022-08-07T08:05:30;102646.19;;;16.31;100.00
60609;BME280;48221;53.528;9.884;2022-08-07T08:07:56;102643.81;;;16.39;100.00
60609;BME280;48221;53.528;9.884;2022-08-07T08:10:21;102643.16;;;16.46;100.00
60609;BME280;48221;53.528;9.884;2022-08-07T08:12:47;102627.44;;;16.49;100.00
60609;BME280;48221;53.528;9.884;2022-08-07T08:15:14;102624.03;;;16.53;100.00
60609;BME280;48221;53.528;9.884;2022-08-07T08:17:41;102638.34;;;16.61;100.00
60609;BME280;48221;53.528;9.884;2022-08-07T08:20:08;102628.81;;;16.66;100.00
60609;BME280;48221;53.528;9.884;2022-08-07T08:22:38;102625.53;;;16.72;100.00
60609;BME280;48221;53.528;9.884;2022-08-07T08:25:24;102625.75;;;16.79;100.00
60609;BME280;48221;53.528;9.884;2022-08-07T08:28:12;102629.41;;;16.84;100.00
60609;BME280;48221;53.528;9.884;2022-08-07T08:30:39;102622.50;;;16.89;100.00
60609;BME280;48221;53.528;9.884;2022-08-07T08:33:08;102625.28;;;16.94;100.00
60609;BME280;48221;53.528;9.884;2022-08-07T08:35:40;102620.22;;;17.02;100.00
60609;BME280;48221;53.528;9.884;2022-08-07T08:38:08;102623.97;;;17.10;100.00
60609;BME280;48221;53.528;9.884;2022-08-07T08:40:39;102622.44;;;17.18;100.00
60609;BME280;48221;53.528;9.884;2022-08-07T08:46:18;102618.47;;;17.34;100.00
60609;BME280;48221;53.528;9.884;2022-08-07T08:49:12;102613.38;;;17.40;100.00
60609;BME280;48221;53.528;9.884;2022-08-07T08:51:51;102613.44;;;17.43;100.00
60609;BME280;48221;53.528;9.884;2022-08-07T08:55:26;102615.38;;;17.50;100.00
60609;BME280;48221;53.528;9.884;2022-08-07T08:57:29;102610.31;;;17.59;100.00
60609;BME280;48221;53.528;9.884;2022-08-07T09:00:06;102613.19;;;17.68;100.00
60609;BME280;48221;53.528;9.884;2022-08-07T09:07:52;102608.59;;;17.94;100.00
60609;BME280;48221;53.528;9.884;2022-08-07T09:10:43;102601.81;;;18.05;100.00
60609;BME280;48221;53.528;9.884;2022-08-07T09:13:34;102600.09;;;18.06;100.00
60609;BME280;48221;53.528;9.884;2022-08-07T09:16:10;102609.22;;;18.20;100.00
60609;BME280;48221;53.528;9.884;2022-08-07T09:18:55;102609.31;;;18.25;100.00
60609;BME280;48221;53.528;9.884;2022-08-07T09:30:04;102601.94;;;18.51;84.64
60609;BME280;48221;53.528;9.884;2022-08-07T09:32:55;102602.16;;;18.60;79.67
60609;BME280;48221;53.528;9.884;2022-08-07T09:35:37;102606.75;;;18.67;79.38
60609;BME280;48221;53.528;9.884;2022-08-07T09:38:08;102599.84;;;18.75;77.63
60609;BME280;48221;53.528;9.884;2022-08-07T09:40:53;102594.78;;;18.86;76.70
60609;BME280;48221;53.528;9.884;2022-08-07T09:43:30;102594.06;;;18.94;74.74
60609;BME280;48221;53.528;9.884;2022-08-07T09:54:46;102585.91;;;19.29;68.95
60609;BME280;48221;53.528;9.884;2022-08-07T10:00:14;102584.50;;;19.49;66.21
60609;BME280;48221;53.528;9.884;2022-08-07T10:14:12;102573.84;;;19.99;59.12
60609;BME280;48221;53.528;9.884;2022-08-07T10:28:34;102550.47;;;20.34;59.68
60609;BME280;48221;53.528;9.884;2022-08-07T10:31:20;102547.19;;;20.49;57.43
60609;BME280;48221;53.528;9.884;2022-08-07T10:37:12;102535.16;;;20.82;58.63
60609;BME280;48221;53.528;9.884;2022-08-07T10:40:03;102544.13;;;20.93;57.57
60609;BME280;48221;53.528;9.884;2022-08-07T10:42:40;102547.66;;;20.92;56.28
60609;BME280;48221;53.528;9.884;2022-08-07T10:45:16;102529.06;;;20.90;54.87
60609;BME280;48221;53.528;9.884;2022-08-07T10:47:58;102524.66;;;20.94;53.34
60609;BME280;48221;53.528;9.884;2022-08-07T10:50:43;102526.53;;;21.04;55.36
60609;BME280;48221;53.528;9.884;2022-08-07T10:53:20;102526.63;;;21.13;54.28
60609;BME280;48221;53.528;9.884;2022-08-07T10:56:09;102526.72;;;21.22;53.60
60609;BME280;48221;53.528;9.884;2022-08-07T11:01:35;102518.91;;;21.36;52.92
60609;BME280;48221;53.528;9.884;2022-08-07T11:07:31;102509.25;;;21.49;53.38
60609;BME280;48221;53.528;9.884;2022-08-07T11:10:16;102512.78;;;21.48;54.47
60609;BME280;48221;53.528;9.884;2022-08-07T11:12:47;102502.09;;;21.36;53.71
60609;BME280;48221;53.528;9.884;2022-08-07T11:15:21;102510.13;;;21.45;52.89
60609;BME280;48221;53.528;9.884;2022-08-07T11:18:10;102500.44;;;21.53;51.13
60609;BME280;48221;53.528;9.884;2022-08-07T11:20:50;102505.00;;;21.71;53.43
60609;BME280;48221;53.528;9.884;2022-08-07T11:26:14;102498.13;;;22.06;53.11
60609;BME280;48221;53.528;9.884;2022-08-07T11:28:48;102498.25;;;22.28;53.98
60609;BME280;48221;53.528;9.884;2022-08-07T11:33:50;102502.75;;;22.49;50.77
60609;BME280;48221;53.528;9.884;2022-08-07T11:38:52;102486.81;;;22.64;54.16
60609;BME280;48221;53.528;9.884;2022-08-07T11:41:27;102490.34;;;22.55;50.83
60609;BME280;48221;53.528;9.884;2022-08-07T11:44:08;102494.72;;;22.36;50.63
60609;BME280;48221;53.528;9.884;2022-08-07T11:47:09;102484.91;;;22.17;50.57
60609;BME280;48221;53.528;9.884;2022-08-07T11:52:41;102489.38;;;22.32;48.57
60609;BME280;48221;53.528;9.884;2022-08-07T11:55:32;102483.19;;;22.33;51.16
60609;BME280;48221;53.528;9.884;2022-08-07T11:58:26;102477.94;;;22.68;53.58
60609;BME280;48221;53.528;9.884;2022-08-07T12:01:13;102465.63;;;23.07;53.93
60609;BME280;48221;53.528;9.884;2022-08-07T12:06:53;102466.47;;;23.38;47.98
60609;BME280;48221;53.528;9.884;2022-08-07T12:09:47;102468.25;;;23.43;46.35
60609;BME280;48221;53.528;9.884;2022-08-07T12:12:18;102463.84;;;23.19;48.73
60609;BME280;48221;53.528;9.884;2022-08-07T12:14:50;102461.19;;;23.27;46.50
60609;BME280;48221;53.528;9.884;2022-08-07T12:17:17;102462.94;;;23.52;44.67
60609;BME280;48221;53.528;9.884;2022-08-07T12:20:07;102452.09;;;24.13;49.44
60609;BME280;48221;53.528;9.884;2022-08-07T12:22:51;102449.47;;;24.01;46.01
60609;BME280;48221;53.528;9.884;2022-08-07T12:25:40;102450.44;;;23.82;48.39
60609;BME280;48221;53.528;9.884;2022-08-07T12:28:44;102452.28;;;23.58;44.36
60609;BME280;48221;53.528;9.884;2022-08-07T12:34:25;102450.53;;;23.21;45.81
60609;BME280;48221;53.528;9.884;2022-08-07T12:36:52;102447.00;;;23.17;44.31
60609;BME280;48221;53.528;9.884;2022-08-07T12:39:21;102449.63;;;23.13;49.16
60609;BME280;48221;53.528;9.884;2022-08-07T12:41:51;102443.41;;;23.32;45.51
60609;BME280;48221;53.528;9.884;2022-08-07T12:44:18;102435.38;;;23.69;45.73
60609;BME280;48221;53.528;9.884;2022-08-07T12:52:10;102453.19;;;23.39;44.62
60609;BME280;48221;53.528;9.884;2022-08-07T12:57:07;102444.22;;;23.83;49.06
60609;BME280;48221;53.528;9.884;2022-08-07T12:59:35;102445.91;;;24.02;43.79
60609;BME280;48221;53.528;9.884;2022-08-07T13:07:57;102446.59;;;24.55;41.09
60609;BME280;48221;53.528;9.884;2022-08-07T13:15:49;102432.69;;;25.26;42.09
60609;BME280;48221;53.528;9.884;2022-08-07T13:21:39;102428.38;;;25.95;39.67
60609;BME280;48221;53.528;9.884;2022-08-07T13:23:54;102425.56;;;26.05;39.69
60609;BME280;48221;53.528;9.884;2022-08-07T13:26:48;102431.81;;;26.06;37.09
60609;BME280;48221;53.528;9.884;2022-08-07T13:35:04;102417.69;;;25.95;37.54
60609;BME280;48221;53.528;9.884;2022-08-07T13:37:48;102422.06;;;26.00;39.70
60609;BME280;48221;53.528;9.884;2022-08-07T13:42:45;102421.44;;;25.78;38.20
60609;BME280;48221;53.528;9.884;2022-08-07T13:45:13;102422.53;;;25.57;36.46
60609;BME280;48221;53.528;9.884;2022-08-07T13:47:40;102415.47;;;25.53;35.80
60609;BME280;48221;53.528;9.884;2022-08-07T13:50:07;102417.16;;;25.62;36.25
60609;BME280;48221;53.528;9.884;2022-08-07T13:52:37;102404.59;;;25.69;36.34
60609;BME280;48221;53.528;9.884;2022-08-07T13:55:09;102395.59;;;25.77;40.10
60609;BME280;48221;53.528;9.884;2022-08-07T13:57:37;102400.72;;;25.96;41.74
60609;BME280;48221;53.528;9.884;2022-08-07T14:00:05;102390.13;;;25.88;38.10
60609;BME280;48221;53.528;9.884;2022-08-07T14:02:33;102397.06;;;26.03;37.90
60609;BME280;48221;53.528;9.884;2022-08-07T14:05:08;102390.78;;;26.04;40.45
60609;BME280;48221;53.528;9.884;2022-08-07T14:07:52;102396.00;;;26.14;39.56
60609;BME280;48221;53.528;9.884;2022-08-07T14:10:18;102385.38;;;26.10;40.67
60609;BME280;48221;53.528;9.884;2022-08-07T14:12:49;102393.25;;;26.21;38.86
60609;BME280;48221;53.528;9.884;2022-08-07T14:15:25;102392.38;;;26.20;40.64
60609;BME280;48221;53.528;9.884;2022-08-07T14:17:52;102388.97;;;26.09;37.71
60609;BME280;48221;53.528;9.884;2022-08-07T14:20:20;102384.53;;;26.06;36.79
60609;BME280;48221;53.528;9.884;2022-08-07T14:25:43;102391.06;;;25.85;37.15
60609;BME280;48221;53.528;9.884;2022-08-07T14:28:10;102379.63;;;25.74;38.53
60609;BME280;48221;53.528;9.884;2022-08-07T14:30:44;102386.69;;;25.78;37.82
60609;BME280;48221;53.528;9.884;2022-08-07T14:33:11;102377.72;;;25.84;36.27
60609;BME280;48221;53.528;9.884;2022-08-07T14:35:39;102380.72;;;25.53;36.51
60609;BME280;48221;53.528;9.884;2022-08-07T14:38:07;102379.16;;;25.33;37.99
60609;BME280;48221;53.528;9.884;2022-08-07T14:40:34;102366.78;;;25.25;36.97
60609;BME280;48221;53.528;9.884;2022-08-07T14:43:04;102371.97;;;25.39;41.32
60609;BME280;48221;53.528;9.884;2022-08-07T14:45:39;102377.22;;;25.47;37.65
60609;BME280;48221;53.528;9.884;2022-08-07T14:48:08;102367.59;;;25.32;37.21
60609;BME280;48221;53.528;9.884;2022-08-07T14:50:39;102363.94;;;25.41;40.02
60609;BME280;48221;53.528;9.884;2022-08-07T14:53:06;102360.38;;;25.42;39.21
60609;BME280;48221;53.528;9.884;2022-08-07T14:55:33;102354.06;;;25.46;38.66
60609;BME280;48221;53.528;9.884;2022-08-07T14:58:00;102354.13;;;25.43;39.05
60609;BME280;48221;53.528;9.884;2022-08-07T15:00:30;102358.50;;;25.47;39.66